createdAt,value
2018-04-14T00:05:36.969Z,31.87
2018-04-14T00:08:05.326Z,30.13
2018-04-14T00:10:32.853Z,29.53
2018-04-14T00:13:00.350Z,28.40
2018-04-14T00:15:27.904Z,24.27
2018-04-14T00:17:55.381Z,23.80
2018-04-14T00:20:22.885Z,26.27
2018-04-14T00:22:50.414Z,24.50
2018-04-14T00:25:18.888Z,22.07
2018-04-14T00:27:46.641Z,23.70
2018-04-14T00:30:14.907Z,24.07
2018-04-14T00:32:42.443Z,24.13
2018-04-14T00:35:10.589Z,23.40
2018-04-14T00:37:38.147Z,23.07
2018-04-14T00:40:05.781Z,23.30
2018-04-14T00:42:33.437Z,20.73
2018-04-14T00:45:01.336Z,22.03
2018-04-14T00:47:28.818Z,21.73
2018-04-14T00:49:56.357Z,21.07
2018-04-14T00:52:43.159Z,22.10
2018-04-14T00:55:12.032Z,22.20
2018-04-14T00:57:39.613Z,21.23
2018-04-14T01:00:08.042Z,24.63
2018-04-14T01:02:41.533Z,23.80
2018-04-14T01:05:09.199Z,22.90
2018-04-14T01:07:36.871Z,22.53
2018-04-14T01:10:04.388Z,22.50
2018-04-14T01:12:36.921Z,22.07
2018-04-14T01:15:04.382Z,22.60
2018-04-14T01:17:31.871Z,22.53
2018-04-14T01:19:59.320Z,19.60
2018-04-14T01:25:19.691Z,22.30
2018-04-14T01:27:47.140Z,21.80
2018-04-14T01:30:14.596Z,17.97
2018-04-14T01:32:42.059Z,23.90
2018-04-14T01:35:09.528Z,20.63
2018-04-14T01:37:37.006Z,18.33
2018-04-14T01:40:04.527Z,18.83
2018-04-14T01:42:32.164Z,14.73
2018-04-14T01:44:59.908Z,16.30
2018-04-14T01:47:27.444Z,15.00
2018-04-14T01:49:55.608Z,15.93
2018-04-14T01:55:15.474Z,16.57
2018-04-14T01:57:43.810Z,15.27
2018-04-14T02:00:11.363Z,15.37
2018-04-14T02:02:38.851Z,16.37
2018-04-14T02:05:06.335Z,15.53
2018-04-14T02:07:33.796Z,15.60
2018-04-14T02:10:01.557Z,14.37
2018-04-14T02:12:38.607Z,14.63
2018-04-14T02:15:06.096Z,15.97
2018-04-14T02:17:33.567Z,15.33
2018-04-14T02:20:01.017Z,15.40
2018-04-14T02:22:28.853Z,16.77
2018-04-14T02:24:56.303Z,14.17
2018-04-14T02:27:23.784Z,13.27
2018-04-14T02:29:51.201Z,13.17
2018-04-14T02:32:18.658Z,12.67
2018-04-14T02:34:46.229Z,12.03
2018-04-14T02:37:13.789Z,11.70
2018-04-14T02:39:41.338Z,11.13
2018-04-14T02:42:08.789Z,11.67
2018-04-14T02:44:36.317Z,11.13
2018-04-14T02:47:03.827Z,10.20
2018-04-14T02:49:31.323Z,11.97
2018-04-14T02:51:58.777Z,10.80
2018-04-14T02:54:26.295Z,9.10
2018-04-14T02:56:53.738Z,9.77
2018-04-14T02:59:21.265Z,10.73
2018-04-14T03:01:48.711Z,8.43
2018-04-14T03:04:16.187Z,11.23
2018-04-14T03:06:43.651Z,8.83
2018-04-14T03:09:11.163Z,9.27
2018-04-14T03:11:38.667Z,9.07
2018-04-14T03:14:06.125Z,9.87
2018-04-14T03:16:33.601Z,9.80
2018-04-14T03:19:01.112Z,10.30
2018-04-14T03:21:28.571Z,8.33
2018-04-14T03:23:56.476Z,8.73
2018-04-14T03:26:23.959Z,9.13
2018-04-14T03:28:52.303Z,7.93
2018-04-14T03:31:19.854Z,8.17
2018-04-14T03:33:47.405Z,7.27
2018-04-14T03:36:14.951Z,7.63
2018-04-14T03:38:42.933Z,8.70
2018-04-14T03:41:10.503Z,7.07
2018-04-14T03:43:37.969Z,6.83
2018-04-14T03:46:06.323Z,7.27
2018-04-14T03:48:33.885Z,7.87
2018-04-14T03:51:01.370Z,6.17
2018-04-14T03:53:28.887Z,6.57
2018-04-14T03:55:56.784Z,6.37
2018-04-14T03:58:24.301Z,6.23
2018-04-14T04:00:51.789Z,6.43
2018-04-14T04:03:19.331Z,5.87
2018-04-14T04:05:46.770Z,6.03
2018-04-14T04:08:14.490Z,8.40
2018-04-14T04:10:41.949Z,7.60
2018-04-14T04:13:09.675Z,5.87
2018-04-14T04:15:37.151Z,5.93
2018-04-14T04:18:04.609Z,6.50
2018-04-14T04:20:56.791Z,6.30
2018-04-14T04:23:36.030Z,6.00
2018-04-14T04:26:03.522Z,6.20
2018-04-14T04:28:30.976Z,5.97
2018-04-14T04:30:58.477Z,5.77
2018-04-14T04:33:25.932Z,5.40
2018-04-14T04:35:53.387Z,5.80
2018-04-14T04:38:20.846Z,5.27
2018-04-14T04:40:48.407Z,6.60
2018-04-14T04:43:15.908Z,5.83
2018-04-14T04:45:43.413Z,5.90
2018-04-14T04:48:10.942Z,6.20
2018-04-14T04:50:38.417Z,6.20
2018-04-14T04:53:15.533Z,6.80
2018-04-14T04:55:43.019Z,5.50
2018-04-14T04:58:11.141Z,7.17
2018-04-14T05:00:38.721Z,5.67
2018-04-14T05:05:58.789Z,5.13
2018-04-14T05:08:26.258Z,6.00
2018-04-14T05:10:53.703Z,4.93
2018-04-14T05:13:21.201Z,6.90
2018-04-14T05:15:48.623Z,6.13
2018-04-14T05:18:16.089Z,10.67
2018-04-14T05:20:43.542Z,5.87
2018-04-14T05:23:15.941Z,6.30
2018-04-14T05:25:43.379Z,5.20
2018-04-14T05:28:10.876Z,6.47
2018-04-14T05:30:38.383Z,6.17
2018-04-14T05:33:05.872Z,6.03
2018-04-14T05:35:33.346Z,8.20
2018-04-14T05:38:00.833Z,6.20
2018-04-14T05:40:28.343Z,7.03
2018-04-14T05:42:55.871Z,7.43
2018-04-14T05:45:23.349Z,7.63
2018-04-14T05:47:51.145Z,5.80
2018-04-14T05:50:18.710Z,6.67
2018-04-14T05:52:46.163Z,7.37
2018-04-14T05:55:13.665Z,6.27
2018-04-14T05:57:41.143Z,6.10
2018-04-14T06:00:08.842Z,6.40
2018-04-14T06:02:36.291Z,6.97
2018-04-14T06:05:03.770Z,6.27
2018-04-14T06:07:31.234Z,5.63
2018-04-14T06:09:58.730Z,6.53
2018-04-14T06:12:26.195Z,4.93
2018-04-14T06:14:53.723Z,5.67
2018-04-14T06:17:21.164Z,5.60
2018-04-14T06:19:48.681Z,4.97
2018-04-14T06:22:16.224Z,4.60
2018-04-14T06:24:43.708Z,5.40
2018-04-14T06:27:11.234Z,5.17
2018-04-14T06:29:38.832Z,4.43
2018-04-14T06:32:06.424Z,4.77
2018-04-14T06:34:33.902Z,4.67
2018-04-14T06:37:01.404Z,5.00
2018-04-14T06:39:28.897Z,5.53
2018-04-14T06:41:56.417Z,6.23
2018-04-14T06:44:23.916Z,4.53
2018-04-14T06:46:51.368Z,4.40
2018-04-14T06:49:18.872Z,4.70
2018-04-14T06:51:46.335Z,4.70
2018-04-14T06:54:13.871Z,4.97
2018-04-14T06:56:41.410Z,7.57
2018-04-14T06:59:08.941Z,4.90
2018-04-14T07:01:36.522Z,5.40
2018-04-14T07:04:04.071Z,5.20
2018-04-14T07:06:31.607Z,5.63
2018-04-14T07:08:59.200Z,4.77
2018-04-14T07:11:26.714Z,5.47
2018-04-14T07:13:54.284Z,4.10
2018-04-14T07:16:21.784Z,5.50
2018-04-14T07:18:49.313Z,7.33
2018-04-14T07:21:16.790Z,4.83
2018-04-14T07:23:53.972Z,5.20
2018-04-14T07:26:21.483Z,7.03
2018-04-14T07:28:49.020Z,6.40
2018-04-14T07:31:16.494Z,4.17
2018-04-14T07:33:43.966Z,5.07
2018-04-14T07:36:11.468Z,5.37
2018-04-14T07:38:39.192Z,3.70
2018-04-14T07:41:06.698Z,5.50
2018-04-14T07:43:48.471Z,4.10
2018-04-14T07:46:15.949Z,5.40
2018-04-14T07:48:43.392Z,6.63
2018-04-14T07:51:11.137Z,6.03
2018-04-14T07:53:38.983Z,4.37
2018-04-14T07:56:06.531Z,8.43
2018-04-14T07:58:34.319Z,7.83
2018-04-14T08:01:01.897Z,5.70
2018-04-14T08:03:30.403Z,4.83
2018-04-14T08:05:57.974Z,4.90
2018-04-14T08:08:25.657Z,4.00
2018-04-14T08:10:53.224Z,4.10
2018-04-14T08:13:21.884Z,4.10
2018-04-14T08:15:49.650Z,6.40
2018-04-14T08:18:18.933Z,5.50
2018-04-14T08:20:46.682Z,4.00
2018-04-14T08:23:15.146Z,4.07
2018-04-14T08:25:42.611Z,6.00
2018-04-14T08:28:10.089Z,4.23
2018-04-14T08:30:37.591Z,4.43
2018-04-14T08:33:05.046Z,4.60
2018-04-14T08:35:32.502Z,4.00
2018-04-14T08:37:59.979Z,6.03
2018-04-14T08:40:27.496Z,5.23
2018-04-14T08:42:54.993Z,5.53
2018-04-14T08:45:22.445Z,4.83
2018-04-14T08:47:49.920Z,4.07
2018-04-14T08:50:17.404Z,4.37
2018-04-14T08:52:44.857Z,6.90
2018-04-14T08:55:12.362Z,5.17
2018-04-14T08:57:39.813Z,4.73
2018-04-14T09:00:07.252Z,6.37
2018-04-14T09:02:34.750Z,8.83
2018-04-14T09:05:02.202Z,5.70
2018-04-14T09:07:29.690Z,5.00
2018-04-14T09:09:57.166Z,5.60
2018-04-14T09:12:24.654Z,7.10
2018-04-14T09:14:52.154Z,6.10
2018-04-14T09:17:19.700Z,7.03
2018-04-14T09:19:47.146Z,5.60
2018-04-14T09:22:14.656Z,7.40
2018-04-14T09:24:42.108Z,5.53
2018-04-14T09:27:09.598Z,6.70
2018-04-14T09:29:37.050Z,8.80
2018-04-14T09:32:05.376Z,7.00
2018-04-14T09:34:32.984Z,7.85
2018-04-14T09:37:00.470Z,7.07
2018-04-14T09:39:27.945Z,7.10
2018-04-14T09:41:55.426Z,7.72
2018-04-14T09:44:22.876Z,6.37
2018-04-14T09:46:50.434Z,7.40
2018-04-14T09:49:17.918Z,8.37
2018-04-14T09:51:45.464Z,10.15
2018-04-14T09:54:12.968Z,8.18
2018-04-14T09:56:40.466Z,7.35
2018-04-14T09:59:08.043Z,8.10
2018-04-14T10:01:35.528Z,7.20
2018-04-14T10:04:03.177Z,8.02
2018-04-14T10:06:30.638Z,7.35
2018-04-14T10:08:58.222Z,6.55
2018-04-14T10:11:25.680Z,5.20
2018-04-14T10:13:53.150Z,6.37
2018-04-14T10:16:20.652Z,4.40
2018-04-14T10:18:48.067Z,7.97
2018-04-14T10:21:16.434Z,5.28
2018-04-14T10:23:43.957Z,5.57
2018-04-14T10:26:11.434Z,4.60
2018-04-14T10:28:39.038Z,4.55
2018-04-14T10:31:06.561Z,3.67
2018-04-14T10:33:34.128Z,4.45
2018-04-14T10:36:01.604Z,3.70
2018-04-14T10:38:29.217Z,4.20
2018-04-14T10:40:56.830Z,3.55
2018-04-14T10:43:24.450Z,4.72
2018-04-14T10:45:51.895Z,5.10
2018-04-14T10:48:19.347Z,6.62
2018-04-14T10:50:46.848Z,6.15
2018-04-14T10:53:14.361Z,7.55
2018-04-14T10:55:41.855Z,7.80
2018-04-14T10:58:09.354Z,3.40
2018-04-14T11:00:36.821Z,4.70
2018-04-14T11:03:04.298Z,3.70
2018-04-14T11:05:31.800Z,4.57
2018-04-14T11:07:59.384Z,3.03
2018-04-14T11:10:26.872Z,3.20
2018-04-14T11:12:54.384Z,2.40
2018-04-14T11:15:21.892Z,3.20
2018-04-14T11:17:49.377Z,3.28
2018-04-14T11:20:16.868Z,2.50
2018-04-14T11:27:38.346Z,2.47
2018-04-14T11:30:05.844Z,2.78
2018-04-14T11:32:33.300Z,3.40
2018-04-14T11:35:00.762Z,2.12
2018-04-14T11:37:28.223Z,6.62
2018-04-14T11:39:55.692Z,2.85
2018-04-14T11:42:23.168Z,1.58
2018-04-14T11:47:17.657Z,1.67
2018-04-14T11:49:45.167Z,1.92
2018-04-14T11:52:24.575Z,1.73
2018-04-14T11:54:52.596Z,2.20
2018-04-14T11:57:20.868Z,1.85
2018-04-14T11:59:49.758Z,2.60
2018-04-14T12:02:17.398Z,2.60
2018-04-14T12:04:45.021Z,2.50
2018-04-14T12:07:12.575Z,2.65
2018-04-14T12:09:40.266Z,2.37
2018-04-14T12:12:07.876Z,2.40
2018-04-14T12:14:35.335Z,2.55
2018-04-14T12:17:02.800Z,1.70
2018-04-14T12:19:30.277Z,4.15
2018-04-14T12:21:57.788Z,1.80
2018-04-14T12:24:25.325Z,1.80
2018-04-14T12:26:52.789Z,1.73
2018-04-14T12:29:20.309Z,1.35
2018-04-14T12:31:47.784Z,1.67
2018-04-14T12:34:15.261Z,1.65
2018-04-14T12:36:42.707Z,1.62
2018-04-14T12:39:10.171Z,2.15
2018-04-14T12:41:37.676Z,1.80
2018-04-14T12:44:05.263Z,1.90
2018-04-14T12:46:32.737Z,2.53
2018-04-14T12:49:00.306Z,1.70
2018-04-14T12:51:27.794Z,1.70
2018-04-14T12:53:55.279Z,1.75
2018-04-14T12:56:22.830Z,3.53
2018-04-14T12:58:50.336Z,2.10
2018-04-14T13:01:17.791Z,2.12
2018-04-14T13:03:45.631Z,2.50
2018-04-14T13:06:13.099Z,1.92
2018-04-14T13:08:40.881Z,2.70
2018-04-14T13:11:08.393Z,2.87
2018-04-14T13:13:35.916Z,2.30
2018-04-14T13:16:04.530Z,2.00
2018-04-14T13:18:32.056Z,2.20
2018-04-14T13:20:59.577Z,1.70
2018-04-14T13:23:27.057Z,2.10
2018-04-14T13:25:54.611Z,2.53
2018-04-14T13:28:22.091Z,2.10
2018-04-14T13:30:49.619Z,1.40
2018-04-14T13:33:17.202Z,1.30
2018-04-14T13:35:45.323Z,1.45
2018-04-14T13:38:14.149Z,1.42
2018-04-14T13:40:41.721Z,1.50
2018-04-14T13:43:09.240Z,1.40
2018-04-14T13:45:36.711Z,2.15
2018-04-14T13:48:04.232Z,2.00
2018-04-14T13:50:31.771Z,1.12
2018-04-14T13:52:59.324Z,2.08
2018-04-14T13:55:26.803Z,1.30
2018-04-14T13:57:54.309Z,3.37
2018-04-14T14:00:21.754Z,1.05
2018-04-14T14:02:54.178Z,1.92
2018-04-14T14:05:21.684Z,1.33
2018-04-14T14:07:49.234Z,2.10
2018-04-14T14:10:17.566Z,1.20
2018-04-14T14:12:45.147Z,2.05
2018-04-14T14:15:13.067Z,1.20
2018-04-14T14:17:40.605Z,1.80
2018-04-14T14:20:08.156Z,1.25
2018-04-14T14:22:40.161Z,0.90
2018-04-14T14:25:07.783Z,2.97
2018-04-14T14:27:35.781Z,1.12
2018-04-14T14:30:03.295Z,1.17
2018-04-14T14:32:30.898Z,1.10
2018-04-14T14:34:58.386Z,1.17
2018-04-14T14:37:25.873Z,1.17
2018-04-14T14:39:53.402Z,2.30
2018-04-14T14:42:20.988Z,2.92
2018-04-14T14:44:48.584Z,1.55
2018-04-14T14:47:16.148Z,1.50
2018-04-14T14:49:43.625Z,1.02
2018-04-14T14:52:25.480Z,1.25
2018-04-14T14:54:53.006Z,1.37
2018-04-14T14:57:20.595Z,1.17
2018-04-14T14:59:48.102Z,1.27
2018-04-14T15:05:08.872Z,2.70
2018-04-14T15:07:36.517Z,1.20
2018-04-14T15:10:04.037Z,1.35
2018-04-14T15:12:31.531Z,2.97
2018-04-14T15:14:59.079Z,1.60
2018-04-14T15:17:26.691Z,1.85
2018-04-14T15:19:54.220Z,1.40
2018-04-14T15:22:26.733Z,1.80
2018-04-14T15:24:54.220Z,1.85
2018-04-14T15:27:21.728Z,1.58
2018-04-14T15:29:49.555Z,1.50
2018-04-14T15:32:17.177Z,2.85
2018-04-14T15:34:44.691Z,1.70
2018-04-14T15:37:12.181Z,1.90
2018-04-14T15:39:39.671Z,1.70
2018-04-14T15:42:07.250Z,2.15
2018-04-14T15:44:35.500Z,2.90
2018-04-14T15:47:03.062Z,1.85
2018-04-14T15:49:30.594Z,2.15
2018-04-14T15:51:58.936Z,1.70
2018-04-14T15:54:26.763Z,3.85
2018-04-14T15:56:54.226Z,1.05
2018-04-14T15:59:21.843Z,3.33
2018-04-14T16:01:49.452Z,1.95
2018-04-14T16:04:16.985Z,2.35
2018-04-14T16:06:44.550Z,1.45
2018-04-14T16:09:12.119Z,1.65
2018-04-14T16:11:39.636Z,1.40
2018-04-14T16:14:07.164Z,3.90
2018-04-14T16:16:34.856Z,2.75
2018-04-14T16:19:02.644Z,1.35
2018-04-14T16:21:30.150Z,1.92
2018-04-14T16:29:44.057Z,5.70
2018-04-14T16:32:12.118Z,25.20
2018-04-14T16:34:40.003Z,17.25
2018-04-14T16:37:07.677Z,29.00
2018-04-14T16:39:35.401Z,18.52
2018-04-14T16:42:03.135Z,6.45
2018-04-14T16:44:30.960Z,7.62
2018-04-14T16:46:58.456Z,32.25
2018-04-14T16:49:26.332Z,42.95
2018-04-14T16:51:53.858Z,24.02
2018-04-14T16:54:21.395Z,30.55
2018-04-14T16:56:48.947Z,60.17
2018-04-14T16:59:16.582Z,18.33
2018-04-14T17:01:44.089Z,8.75
2018-04-14T17:04:11.620Z,9.90
2018-04-14T17:06:39.106Z,28.70
2018-04-14T17:09:06.616Z,11.73
2018-04-14T17:11:34.122Z,8.45
2018-04-14T17:14:01.627Z,6.55
2018-04-14T17:16:29.168Z,9.55
2018-04-14T17:18:56.672Z,5.55
2018-04-14T17:21:24.283Z,12.85
2018-04-14T17:23:51.850Z,12.57
2018-04-14T17:26:19.378Z,28.12
2018-04-14T17:28:46.965Z,36.00
2018-04-14T17:31:14.450Z,18.12
2018-04-14T17:33:42.034Z,26.02
2018-04-14T17:36:09.592Z,17.40
2018-04-14T17:38:37.215Z,42.55
2018-04-14T17:41:04.737Z,49.70
2018-04-14T17:43:32.296Z,27.00
2018-04-14T17:45:59.779Z,140.55
2018-04-14T17:48:27.415Z,114.65
2018-04-14T17:50:54.988Z,76.70
2018-04-14T17:53:22.838Z,41.40
2018-04-14T17:55:50.300Z,41.13
2018-04-14T17:58:17.824Z,20.35
2018-04-14T18:00:45.320Z,20.12
2018-04-14T18:03:12.906Z,24.63
2018-04-14T18:05:40.737Z,13.75
2018-04-14T18:08:08.292Z,19.52
2018-04-14T18:10:35.916Z,9.20
2018-04-14T18:13:03.432Z,15.10
2018-04-14T18:15:30.995Z,8.38
2018-04-14T18:17:58.538Z,7.15
2018-04-14T18:20:26.476Z,11.05
2018-04-14T18:22:54.008Z,9.40
2018-04-14T18:25:21.523Z,10.98
2018-04-14T18:27:49.082Z,10.15
2018-04-14T18:30:16.573Z,14.50
2018-04-14T18:32:44.072Z,11.07
2018-04-14T18:35:11.645Z,8.88
2018-04-14T18:37:39.165Z,8.45
2018-04-14T18:40:06.675Z,16.48
2018-04-14T18:42:34.151Z,15.10
2018-04-14T18:45:01.834Z,41.85
2018-04-14T18:47:29.313Z,14.93
2018-04-14T18:49:56.995Z,14.70
2018-04-14T18:52:24.543Z,7.22
2018-04-14T18:54:52.344Z,5.45
2018-04-14T18:57:19.866Z,6.62
2018-04-14T18:59:48.131Z,6.60
2018-04-14T19:02:15.795Z,8.30
2018-04-14T19:04:43.368Z,6.07
2018-04-14T19:07:10.832Z,12.85
2018-04-14T19:09:38.409Z,7.53
2018-04-14T19:12:05.951Z,9.18
2018-04-14T19:14:33.509Z,6.03
2018-04-14T19:17:01.071Z,8.68
2018-04-14T19:19:28.607Z,6.07
2018-04-14T19:21:56.504Z,7.05
2018-04-14T19:24:23.988Z,8.25
2018-04-14T19:26:51.624Z,12.23
2018-04-14T19:29:19.273Z,16.08
2018-04-14T19:31:46.824Z,14.63
2018-04-14T19:34:14.988Z,10.35
2018-04-14T19:36:42.696Z,11.95
2018-04-14T19:39:10.416Z,7.65
2018-04-14T19:41:37.960Z,10.65
2018-04-14T19:44:05.503Z,10.95
2018-04-14T19:46:33.112Z,10.55
2018-04-14T19:49:00.617Z,11.25
2018-04-14T19:51:28.173Z,16.25
2018-04-14T19:53:55.737Z,11.07
2018-04-14T19:56:23.265Z,13.45
2018-04-14T19:58:50.726Z,10.93
2018-04-14T20:01:18.210Z,13.70
2018-04-14T20:03:45.742Z,11.85
2018-04-14T20:06:13.285Z,12.98
2018-04-14T20:08:40.917Z,10.23
2018-04-14T20:11:08.418Z,11.20
2018-04-14T20:13:35.963Z,9.18
2018-04-14T20:16:03.535Z,14.25
2018-04-14T20:18:31.109Z,10.38
2018-04-14T20:20:58.584Z,12.20
2018-04-14T20:23:26.120Z,10.43
2018-04-14T20:25:53.575Z,12.98
2018-04-14T20:28:21.106Z,12.80
2018-04-14T20:30:48.567Z,13.57
2018-04-14T20:33:16.101Z,10.02
2018-04-14T20:35:43.636Z,13.02
2018-04-14T20:38:11.188Z,8.13
2018-04-14T20:40:38.671Z,13.45
2018-04-14T20:43:06.152Z,11.38
2018-04-14T20:45:33.744Z,14.25
2018-04-14T20:48:01.269Z,13.25
2018-04-14T20:50:28.740Z,13.30
2018-04-14T20:53:16.335Z,10.07
2018-04-14T20:55:43.858Z,14.43
2018-04-14T20:58:11.306Z,11.52
2018-04-14T21:00:38.841Z,14.48
2018-04-14T21:03:16.011Z,12.63
2018-04-14T21:05:43.578Z,19.50
2018-04-14T21:08:11.135Z,20.98
2018-04-14T21:10:38.595Z,12.95
2018-04-14T21:13:06.112Z,15.40
2018-04-14T21:15:33.596Z,11.82
2018-04-14T21:18:01.139Z,17.48
2018-04-14T21:20:28.604Z,14.45
2018-04-14T21:23:05.733Z,17.15
2018-04-14T21:25:33.253Z,14.48
2018-04-14T21:28:00.746Z,20.48
2018-04-14T21:30:28.210Z,16.12
2018-04-14T21:32:55.704Z,13.70
2018-04-14T21:35:23.206Z,15.70
2018-04-14T21:37:51.006Z,18.48
2018-04-14T21:40:19.115Z,19.23
2018-04-14T21:42:46.683Z,15.35
2018-04-14T21:45:15.805Z,18.70
2018-04-14T21:47:43.423Z,13.95
2018-04-14T21:50:10.995Z,19.03
2018-04-14T21:52:38.561Z,14.98
2018-04-14T21:55:06.027Z,20.20
2018-04-14T21:57:33.530Z,14.63
2018-04-14T22:00:01.085Z,17.58
2018-04-14T22:02:28.642Z,16.40
2018-04-14T22:04:56.111Z,15.23
2018-04-14T22:07:23.565Z,17.33
2018-04-14T22:09:51.067Z,17.65
2018-04-14T22:12:18.533Z,15.25
2018-04-14T22:14:46.026Z,21.70
2018-04-14T22:17:13.522Z,18.87
2018-04-14T22:19:41.087Z,15.50
2018-04-14T22:22:08.605Z,20.80
2018-04-14T22:24:36.366Z,18.12
2018-04-14T22:27:03.828Z,17.70
2018-04-14T22:29:31.898Z,17.73
2018-04-14T22:32:00.280Z,16.73
2018-04-14T22:34:27.760Z,11.27
2018-04-14T22:36:55.225Z,13.15
2018-04-14T22:39:22.719Z,13.57
2018-04-14T22:41:50.549Z,11.95
2018-04-14T22:44:18.481Z,10.48
2018-04-14T22:46:45.955Z,13.68
2018-04-14T22:49:13.418Z,12.10
2018-04-14T22:51:40.928Z,12.13
2018-04-14T22:54:08.413Z,12.57
2018-04-14T22:56:35.923Z,12.40
2018-04-14T22:59:03.501Z,11.15
2018-04-14T23:01:30.989Z,10.43
2018-04-14T23:03:58.461Z,11.63
2018-04-14T23:06:25.970Z,11.73
2018-04-14T23:08:54.425Z,14.75
2018-04-14T23:11:23.668Z,16.73
2018-04-14T23:13:51.185Z,15.07
2018-04-14T23:16:18.725Z,12.27
2018-04-14T23:18:46.259Z,11.93
2018-04-14T23:21:13.825Z,12.40
2018-04-14T23:23:41.371Z,11.48
2018-04-14T23:26:08.930Z,11.57
2018-04-14T23:28:37.043Z,9.95
2018-04-14T23:31:04.629Z,12.55
2018-04-14T23:33:37.052Z,9.43
2018-04-14T23:36:04.513Z,8.25
2018-04-14T23:38:31.963Z,11.12
2018-04-14T23:40:59.514Z,9.97
2018-04-14T23:43:26.980Z,9.40
2018-04-14T23:45:54.450Z,7.30
2018-04-14T23:48:21.930Z,9.53
2018-04-14T23:50:49.441Z,9.15
2018-04-14T23:53:16.982Z,9.97
2018-04-14T23:55:45.275Z,9.85
2018-04-14T23:58:13.210Z,10.27
